• Join FlightAware (Why Join?)
  • Login
  • US Flag 
08:15PM EST


 

Airport Tracker/Info


-or-


 

Live Flight TrackerFlight Track Log ✈ ASH3732 ✈ 15-Jul-2013 ✈ KIAD - KMCI

Flight Track Log - Related Links

Times and Time Zones

All times are in EDT time to prevent confusion due to time zone crossing. See the ASH3732 flight status page for this flight to view local times or setup timezone preferences in your user account.

Time Position Orientation Groundspeed Altitude Reporting Facility
EDT Latitude Longitude Course Direction KTS MPH feet Rate Location/Type
08:38AM 38.9000 -77.4500 229° Southwest 160 184 2,100  Level Potomac TRACON
08:39AM 38.8667 -77.5000 229° Southwest 248 285 3,000 2,050 Climbing Potomac TRACON
08:41AM 38.8222 -77.6886 253° West 252 290 8,900 2,371 Climbing Washington Center
08:42AM 38.8578 -77.7936 294° West 279 321 11,100 1,721 Climbing Washington Center
08:43AM 38.8556 -77.9136 269° West 312 359 12,400 1,475 Climbing Washington Center
08:44AM 38.8553 -78.0389 270° West 336 387 14,100 1,780 Climbing Washington Center
08:45AM 38.8544 -78.1719 270° West 359 413 15,900 1,613 Climbing Washington Center
08:46AM 38.8536 -78.3081 270° West 379 436 17,300 1,328 Climbing Washington Center
08:47AM 38.8525 -78.4467 269° West 390 449 18,600 1,339 Climbing Washington Center
08:48AM 38.8511 -78.5906 269° West 395 455 20,000 1,374 Climbing Washington Center
08:50AM 38.8475 -78.8861 269° West 416 479 22,700 1,267 Climbing Washington Center
08:51AM 38.8431 -79.0406 268° West 422 486 23,800 1,091 Climbing Washington Center
08:52AM 38.8428 -79.1953 270° West 428 493 24,900 1,179 Climbing Washington Center
08:53AM 38.8381 -79.3522 268° West 441 507 26,100 1,109 Climbing Washington Center
08:54AM 38.8372 -79.5094 270° West 441 507 27,100 885 Climbing Washington Center
08:55AM 38.8342 -79.6639 269° West 459 528 27,900 843 Climbing Washington Center
08:56AM 38.8303 -79.8314 268° West 466 536 28,800 842 Climbing Washington Center
08:57AM 38.8242 -79.9664 267° West 472 543 29,500 835 Climbing Indianapolis Center
08:58AM 38.8189 -80.1728 268° West 482 555 30,400 677 Climbing Indianapolis Center
08:59AM 38.8128 -80.3472 267° West 490 564 30,900 1,024 Climbing Indianapolis Center
09:00AM 38.8094 -80.5206 269° West 489 563 32,500 1,561 Climbing Indianapolis Center
09:01AM 38.8047 -80.6819 268° West 457 526 34,100 1,210 Climbing Indianapolis Center
09:03AM 38.8000 -80.8444 268° West 455 524 35,000 774 Climbing Indianapolis Center
09:04AM 38.7944 -81.0061 268° West 456 525 35,700 677 Climbing Indianapolis Center
09:05AM 38.7894 -81.1672 268° West 454 522 36,400 732 Climbing Indianapolis Center
09:06AM 38.7833 -81.3600 268° West 454 522 37,200 732 Climbing Indianapolis Center
09:07AM 38.7761 -81.5311 267° West 453 521 37,900 387 Climbing Indianapolis Center
09:08AM 38.7697 -81.6917 267° West 451 519 38,000 48 Climbing Indianapolis Center
09:09AM 38.7642 -81.8361 267° West 463 533 38,000  Level Indianapolis Center
09:10AM 38.7583 -82.0364 268° West 472 543 38,000  Level Indianapolis Center
09:11AM 38.7794 -82.2017 279° West 472 543 38,000  Level Indianapolis Center
09:12AM 38.7989 -82.3653 279° West 467 537 38,000  Level Indianapolis Center
09:13AM 38.8206 -82.5281 280° West 463 533 38,000  Level Indianapolis Center
09:14AM 38.8406 -82.6908 279° West 463 533 38,000  Level Indianapolis Center
09:15AM 38.8603 -82.8522 279° West 460 529 38,000  Level Indianapolis Center
09:16AM 38.8792 -83.0125 279° West 455 524 38,000  Level Indianapolis Center
09:17AM 38.9003 -83.1847 279° West 457 526 38,000  Level Indianapolis Center
09:18AM 38.9236 -83.3747 279° West 456 525 38,000  Level Indianapolis Center
09:19AM 38.9425 -83.5378 279° West 457 526 38,000  Level Indianapolis Center
09:20AM 38.9619 -83.7011 279° West 457 526 38,000  Level Indianapolis Center
09:21AM 38.9806 -83.8636 278° West 455 524 38,000  Level Indianapolis Center
09:22AM 38.9994 -84.0286 278° West 459 528 38,000  Level Indianapolis Center
09:23AM 39.0181 -84.1911 278° West 455 524 38,000  Level Indianapolis Center
09:24AM 39.0369 -84.3553 278° West 457 526 38,000  Level Indianapolis Center
09:25AM 39.0553 -84.5194 278° West 459 528 38,000  Level Indianapolis Center
09:26AM 39.0731 -84.6828 278° West 457 526 38,000  Level Indianapolis Center
09:27AM 39.0947 -84.8750 278° West 460 529 38,000  Level Indianapolis Center
09:28AM 39.1111 -85.0375 277° West 456 525 38,000  Level Indianapolis Center
09:29AM 39.1283 -85.2006 278° West 459 528 38,000  Level Indianapolis Center
09:30AM 39.1456 -85.3658 278° West 462 532 38,000  Level Indianapolis Center
09:31AM 39.1622 -85.5267 278° West 459 528 38,000  Level Indianapolis Center
09:32AM 39.1786 -85.6900 277° West 459 528 38,000  Level Indianapolis Center
09:33AM 39.1942 -85.8533 277° West 458 527 38,000  Level Indianapolis Center
09:35AM 39.2136 -86.0497 277° West 460 529 38,000  Level Indianapolis Center
09:36AM 39.2289 -86.2144 277° West 461 531 38,000  Level Indianapolis Center
09:37AM 39.2442 -86.3789 277° West 460 529 38,000  Level Indianapolis Center
09:38AM 39.2597 -86.5439 277° West 461 531 38,000  Level Indianapolis Center
09:39AM 39.2753 -86.7072 277° West 459 528 38,000  Level Indianapolis Center
09:40AM 39.2908 -86.8728 277° West 462 532 38,000  Level Indianapolis Center
09:41AM 39.3050 -87.0367 276° West 461 531 38,000  Level Indianapolis Center
09:42AM 39.3228 -87.2339 277° West 460 529 38,000  Level Indianapolis Center
09:43AM 39.3358 -87.3969 276° West 457 526 38,000  Level Indianapolis Center
09:44AM 39.3497 -87.5633 276° West 464 534 38,000  Level Indianapolis Center
09:45AM 39.3636 -87.7247 276° West 462 532 38,000  Level Indianapolis Center
09:46AM 39.3764 -87.8931 276° West 465 535 38,000  Level Indianapolis Center
09:47AM 39.3900 -88.0586 276° West 464 534 38,000  Level Indianapolis Center
09:48AM 39.4044 -88.2231 277° West 463 533 38,000  Level Kansas City Center
09:49AM 39.4169 -88.3903 276° West 465 535 38,000  Level Kansas City Center
09:50AM 39.4297 -88.5572 276° West 466 536 38,000  Level Kansas City Center
09:51AM 39.4411 -88.7367 275° West 473 544 38,000  Level Kansas City Center
09:52AM 39.4533 -88.9022 276° West 466 536 38,000  Level Kansas City Center
09:53AM 39.4647 -89.0689 275° West 466 536 38,000  Level Kansas City Center
09:54AM 39.4786 -89.2700 275° West 466 536 38,000  Level Kansas City Center
09:55AM 39.4906 -89.4417 275° West 466 536 38,000  Level Kansas City Center
09:56AM 39.5019 -89.6067 275° West 464 534 38,000  Level Kansas City Center
09:57AM 39.5117 -89.7736 274° West 467 537 38,000  Level Kansas City Center
09:58AM 39.5244 -89.9444 276° West 471 542 38,000  Level Kansas City Center
09:59AM 39.5347 -90.1181 274° West 478 550 38,000  Level Kansas City Center
10:00AM 39.5467 -90.3306 274° West 490 564 38,000  Level Kansas City Center
10:01AM 39.5581 -90.5097 275° West 498 573 38,000  Level Kansas City Center
10:02AM 39.5669 -90.6867 274° West 498 573 38,000  Level Kansas City Center
10:03AM 39.5769 -90.8650 274° West 498 573 38,000  Level Kansas City Center
10:04AM 39.5875 -91.0417 274° West 496 571 38,000  Level Kansas City Center
10:05AM 39.5986 -91.2561 274° West 499 574 38,000  Level Kansas City Center
10:06AM 39.6069 -91.4236 274° West 501 577 38,000  Level Kansas City Center
10:08AM 39.6153 -91.6017 274° West 499 574 38,000  Level Kansas City Center
10:09AM 39.6231 -91.7803 273° West 499 574 38,000  Level Kansas City Center
10:10AM 39.6328 -91.9933 273° West 497 572 38,000  Level Kansas City Center
10:11AM 39.6406 -92.1669 273° West 489 563 38,000 -197 Level Kansas City Center
10:12AM 39.6481 -92.3356 273° West 479 551 37,600 -968 Descending Kansas City Center
10:13AM 39.6542 -92.5061 273° West 475 547 36,000 -1,742 Descending Kansas City Center
10:14AM 39.6511 -92.6842 269° West 487 560 34,000 -2,129 Descending Kansas City Center
10:15AM 39.6489 -92.8994 269° West 496 571 31,600 -2,371 Descending Kansas City Center
10:16AM 39.6458 -93.0700 269° West 485 558 29,100 -2,565 Descending Kansas City Center
10:17AM 39.6431 -93.2372 269° West 471 542 26,300 -2,400 Descending Kansas City Center
10:18AM 39.6392 -93.3844 268° West 421 484 24,100 -2,323 Descending Kansas City Center
10:19AM 39.6375 -93.5322 269° West 408 470 21,500 -2,274 Descending Kansas City Center
10:20AM 39.6342 -93.6675 268° West 392 451 19,400 -1,902 Descending Kansas City Center
10:21AM 39.6314 -93.8236 269° West 362 417 17,600 -1,805 Descending Kansas City Center
10:22AM 39.6008 -93.9308 250° West 333 383 15,700 -2,016 Descending Kansas City Center
10:23AM 39.5469 -94.0392 237° Southwest 320 368 13,400 -2,000 Descending Kansas City Center
10:24AM 39.5019 -94.1264 236° Southwest 304 350 11,500 -1,854 Descending Kansas City Center
10:25AM 39.4822 -94.2250 256° West 303 349 9,600 -2,231 Descending Kansas City Center
10:26AM 39.4678 -94.3411 261° West 293 337 7,000 -1,728 Descending Kansas City Center
10:27AM 39.4542 -94.4369 260° West 285 328 6,000 -624 Descending Kansas City Center
10:28AM 39.4378 -94.5464 259° West 278 320 5,700 -677 Descending Kansas City Center
10:29AM 39.4233 -94.6347 258° West 264 304 4,600 -1,536 Descending Kansas City Center
10:30AM 39.3722 -94.6836 216° Southwest 210 242 2,500 -1,525 Descending Kansas City Center
10:31AM 39.3297 -94.6939 191° South 160 184 1,500 -672 Descending Kansas City Center
10:32AM 39.2908 -94.7072 195° South 128 147 1,100 -375 Descending Kansas City Center
10:34AM 39.2833 -94.7000 270° West  Level FlightAware Approximate